createdAt,value
2022-08-29T00:02:05.536Z,24.05
2022-08-29T00:04:49.529Z,23.96
2022-08-29T00:07:35.427Z,23.90
2022-08-29T00:10:19.661Z,23.63
2022-08-29T00:13:06.723Z,23.73
2022-08-29T00:15:50.634Z,23.68
2022-08-29T00:18:34.901Z,23.70
2022-08-29T00:21:18.778Z,23.82
2022-08-29T00:24:04.617Z,23.92
2022-08-29T00:26:48.586Z,23.74
2022-08-29T00:29:32.399Z,23.70
2022-08-29T00:32:16.299Z,23.79
2022-08-29T00:35:00.153Z,23.70
2022-08-29T00:37:45.116Z,23.63
2022-08-29T00:40:33.851Z,23.43
2022-08-29T00:43:19.608Z,23.63
2022-08-29T00:46:13.169Z,23.39
2022-08-29T00:49:00.334Z,23.64
2022-08-29T00:51:44.442Z,23.49
2022-08-29T00:54:28.497Z,23.56
2022-08-29T00:57:14.380Z,23.52
2022-08-29T00:59:58.939Z,23.37
2022-08-29T01:02:43.490Z,23.58
2022-08-29T01:05:27.785Z,23.70
2022-08-29T01:08:11.819Z,23.67
2022-08-29T01:11:13.626Z,23.63
2022-08-29T01:14:01.330Z,23.35
2022-08-29T01:16:47.106Z,23.27
2022-08-29T01:19:44.194Z,22.51
2022-08-29T01:22:40.993Z,23.47
2022-08-29T01:25:28.691Z,23.53
2022-08-29T01:28:17.250Z,23.47
2022-08-29T01:31:06.459Z,23.24
2022-08-29T01:33:54.459Z,23.38
2022-08-29T01:36:42.946Z,23.29
2022-08-29T01:39:29.264Z,23.50
2022-08-29T01:42:19.126Z,23.50
2022-08-29T01:45:03.305Z,22.89
2022-08-29T01:47:47.318Z,23.24
2022-08-29T01:50:32.983Z,23.18
2022-08-29T01:53:17.626Z,23.39
2022-08-29T01:56:09.484Z,23.47
2022-08-29T01:58:56.445Z,23.24
2022-08-29T02:01:43.348Z,23.30
2022-08-29T02:04:27.502Z,23.26
2022-08-29T02:07:12.826Z,23.01
2022-08-29T02:09:56.912Z,23.09
2022-08-29T02:12:41.013Z,22.93
2022-08-29T02:15:26.349Z,23.32
2022-08-29T02:18:10.349Z,23.45
2022-08-29T02:20:54.184Z,23.35
2022-08-29T02:23:39.848Z,23.31
2022-08-29T02:26:24.053Z,23.39
2022-08-29T02:29:09.734Z,23.43
2022-08-29T02:31:55.403Z,23.22
2022-08-29T02:34:40.068Z,23.26
2022-08-29T02:37:27.976Z,23.19
2022-08-29T02:40:12.300Z,23.27
2022-08-29T02:42:57.028Z,23.22
2022-08-29T02:45:43.537Z,23.29
2022-08-29T02:48:28.957Z,23.52
2022-08-29T02:51:19.438Z,23.61
2022-08-29T02:54:03.911Z,23.54
2022-08-29T02:56:47.742Z,23.41
2022-08-29T02:59:31.595Z,23.63
2022-08-29T03:02:15.648Z,23.73
2022-08-29T03:05:01.144Z,23.74
2022-08-29T03:07:50.805Z,23.78
2022-08-29T03:10:36.712Z,23.45
2022-08-29T03:13:20.547Z,23.33
2022-08-29T03:16:05.933Z,23.38
2022-08-29T03:18:50.153Z,23.48
2022-08-29T03:21:35.500Z,23.58
2022-08-29T03:24:26.356Z,23.53
2022-08-29T03:27:11.097Z,23.87
2022-08-29T03:29:54.925Z,24.10
2022-08-29T03:32:39.172Z,23.89
2022-08-29T03:35:23.365Z,23.89
2022-08-29T03:38:08.847Z,23.88
2022-08-29T03:40:53.521Z,23.59
2022-08-29T03:43:42.239Z,23.50
2022-08-29T03:46:27.178Z,23.47
2022-08-29T03:49:11.331Z,23.65
2022-08-29T03:51:55.600Z,23.74
2022-08-29T03:54:40.780Z,23.86
2022-08-29T03:57:25.029Z,23.97
2022-08-29T04:00:12.326Z,23.89
2022-08-29T04:02:58.358Z,24.03
2022-08-29T04:05:42.983Z,24.05
2022-08-29T04:08:26.922Z,24.12
2022-08-29T04:11:13.706Z,24.29
2022-08-29T04:13:57.522Z,24.10
2022-08-29T04:16:41.445Z,24.23
2022-08-29T04:19:25.300Z,24.49
2022-08-29T04:22:09.505Z,24.50
2022-08-29T04:24:53.475Z,24.56
2022-08-29T04:27:39.284Z,24.30
2022-08-29T04:30:24.978Z,24.25
2022-08-29T04:33:08.932Z,24.46
2022-08-29T04:36:00.219Z,24.66
2022-08-29T04:38:44.251Z,24.87
2022-08-29T04:41:28.171Z,24.93
2022-08-29T04:44:14.429Z,25.32
2022-08-29T04:46:58.414Z,25.73
2022-08-29T04:49:42.537Z,25.90
2022-08-29T04:52:28.211Z,25.60
2022-08-29T04:55:13.154Z,26.30
2022-08-29T04:57:57.542Z,26.63
2022-08-29T05:00:42.753Z,26.84
2022-08-29T05:03:26.767Z,26.91
2022-08-29T05:06:14.350Z,27.21
2022-08-29T05:08:59.047Z,27.40
2022-08-29T05:11:43.942Z,27.60
2022-08-29T05:14:27.984Z,27.65
2022-08-29T05:17:14.410Z,27.52
2022-08-29T05:19:58.614Z,27.71
2022-08-29T05:22:43.463Z,27.92
2022-08-29T05:25:27.600Z,27.91
2022-08-29T05:28:12.324Z,27.96
2022-08-29T05:30:56.557Z,28.14
2022-08-29T05:33:41.915Z,28.15
2022-08-29T05:36:25.953Z,28.38
2022-08-29T05:39:09.855Z,28.48
2022-08-29T05:41:58.531Z,28.40
2022-08-29T05:44:42.328Z,28.63
2022-08-29T05:47:26.629Z,28.60
2022-08-29T05:50:13.764Z,28.65
2022-08-29T05:52:57.733Z,28.76
2022-08-29T05:55:42.081Z,28.87
2022-08-29T05:58:26.587Z,29.14
2022-08-29T06:01:10.381Z,29.29
2022-08-29T06:03:55.118Z,29.45
2022-08-29T06:06:42.508Z,28.86
2022-08-29T06:09:26.548Z,29.09
2022-08-29T06:12:12.063Z,29.20
2022-08-29T06:14:56.072Z,29.37
2022-08-29T06:17:40.282Z,29.51
2022-08-29T06:20:24.533Z,29.46
2022-08-29T06:23:10.153Z,29.73
2022-08-29T06:25:57.354Z,29.65
2022-08-29T06:28:46.061Z,29.27
2022-08-29T06:31:30.237Z,29.39
2022-08-29T06:34:14.456Z,29.79
2022-08-29T06:36:59.633Z,29.73
2022-08-29T06:39:45.211Z,29.56
2022-08-29T06:42:29.274Z,29.90
2022-08-29T06:45:13.301Z,30.04
2022-08-29T06:47:57.353Z,30.14
2022-08-29T06:50:45.543Z,30.33
2022-08-29T06:53:32.313Z,30.63
2022-08-29T06:56:19.163Z,30.25
2022-08-29T06:59:03.262Z,30.65
2022-08-29T07:01:48.516Z,30.50
2022-08-29T07:04:34.115Z,30.66
2022-08-29T07:07:19.289Z,30.63
2022-08-29T07:10:03.451Z,30.72
2022-08-29T07:12:49.075Z,30.75
2022-08-29T07:15:33.119Z,30.90
2022-08-29T07:18:17.335Z,30.84
2022-08-29T07:21:01.404Z,30.88
2022-08-29T07:23:46.284Z,30.91
2022-08-29T07:26:33.253Z,31.49
2022-08-29T07:29:21.517Z,31.81
2022-08-29T07:32:05.586Z,31.88
2022-08-29T07:34:54.058Z,31.81
2022-08-29T07:37:39.844Z,32.23
2022-08-29T07:40:23.962Z,32.11
2022-08-29T07:43:07.866Z,31.31
2022-08-29T07:45:53.194Z,31.85
2022-08-29T07:48:37.519Z,32.07
2022-08-29T07:51:24.106Z,32.20
2022-08-29T07:54:07.995Z,31.98
2022-08-29T07:56:53.738Z,31.73
2022-08-29T07:59:37.650Z,32.32
2022-08-29T08:02:23.122Z,32.72
2022-08-29T08:05:08.003Z,32.71
2022-08-29T08:07:55.678Z,32.84
2022-08-29T08:10:40.501Z,32.74
2022-08-29T08:13:28.127Z,32.89
2022-08-29T08:16:14.524Z,33.02
2022-08-29T08:19:00.118Z,33.26
2022-08-29T08:21:49.909Z,32.80
2022-08-29T08:24:34.143Z,33.94
2022-08-29T08:27:17.986Z,33.72
2022-08-29T08:30:01.861Z,33.67
2022-08-29T08:32:49.558Z,33.36
2022-08-29T08:35:42.001Z,33.81
2022-08-29T08:38:26.186Z,34.17
2022-08-29T08:41:26.426Z,34.26
2022-08-29T08:44:30.001Z,34.24
2022-08-29T08:47:26.959Z,34.72
2022-08-29T08:50:18.486Z,34.61
2022-08-29T08:53:11.978Z,35.25
2022-08-29T08:56:00.011Z,34.88
2022-08-29T08:58:52.291Z,34.75
2022-08-29T09:01:40.888Z,35.31
2022-08-29T09:04:55.079Z,34.75
2022-08-29T09:07:51.229Z,35.63
2022-08-29T09:10:44.683Z,35.36
2022-08-29T09:13:38.660Z,34.65
2022-08-29T09:16:27.911Z,35.13
2022-08-29T09:19:17.261Z,34.52
2022-08-29T09:22:10.744Z,34.55
2022-08-29T09:24:59.166Z,34.42
2022-08-29T09:27:44.954Z,34.34
2022-08-29T09:30:31.280Z,34.55
2022-08-29T09:33:19.111Z,34.76
2022-08-29T09:36:04.752Z,34.53
2022-08-29T09:38:48.609Z,34.69
2022-08-29T09:41:32.440Z,34.50
2022-08-29T09:44:23.934Z,34.34
2022-08-29T09:47:12.563Z,34.99
2022-08-29T09:50:08.276Z,34.61
2022-08-29T09:52:53.905Z,34.57
2022-08-29T09:55:42.550Z,34.72
2022-08-29T09:58:34.243Z,34.21
2022-08-29T10:01:27.605Z,33.86
2022-08-29T10:04:13.477Z,33.85
2022-08-29T10:07:10.704Z,33.25
2022-08-29T10:10:01.528Z,33.64
2022-08-29T10:12:53.064Z,33.72
2022-08-29T10:15:51.371Z,33.84
2022-08-29T10:18:46.023Z,33.98
2022-08-29T10:21:37.233Z,34.29
2022-08-29T10:24:31.390Z,34.21
2022-08-29T10:27:28.679Z,34.22
2022-08-29T10:30:16.180Z,33.77
2022-08-29T10:33:19.634Z,34.08
2022-08-29T10:36:13.396Z,34.63
2022-08-29T10:39:04.168Z,33.92
2022-08-29T10:41:57.352Z,34.99
2022-08-29T10:44:53.754Z,35.41
2022-08-29T10:47:41.928Z,35.53
2022-08-29T10:50:44.241Z,35.57
2022-08-29T10:53:38.289Z,34.59
2022-08-29T10:56:25.900Z,35.15
2022-08-29T10:59:23.154Z,35.28
2022-08-29T11:02:12.301Z,34.40
2022-08-29T11:05:00.715Z,34.47
2022-08-29T11:07:50.604Z,34.68
2022-08-29T11:10:41.486Z,33.88
2022-08-29T11:13:30.523Z,33.00
2022-08-29T11:16:19.703Z,33.55
2022-08-29T11:19:10.484Z,33.62
2022-08-29T11:22:00.237Z,33.01
2022-08-29T11:24:47.333Z,33.35
2022-08-29T11:27:40.225Z,33.41
2022-08-29T11:30:29.552Z,33.05
2022-08-29T11:33:23.990Z,33.50
2022-08-29T11:36:29.282Z,33.21
2022-08-29T11:39:38.361Z,33.30
2022-08-29T11:45:37.552Z,33.38
2022-08-29T11:48:34.740Z,33.02
2022-08-29T11:51:31.975Z,33.05
2022-08-29T11:54:52.204Z,32.59
2022-08-29T11:57:58.306Z,32.88
2022-08-29T12:00:51.436Z,33.18
2022-08-29T12:03:57.588Z,32.96
2022-08-29T12:07:01.245Z,33.31
2022-08-29T12:09:51.614Z,32.89
2022-08-29T12:12:47.523Z,32.57
2022-08-29T12:15:54.806Z,32.68
2022-08-29T12:18:48.830Z,33.16
2022-08-29T12:21:48.875Z,32.74
2022-08-29T12:24:41.853Z,32.68
2022-08-29T12:28:01.310Z,33.80
2022-08-29T12:30:48.898Z,33.43
2022-08-29T12:33:47.357Z,33.69
2022-08-29T12:36:51.951Z,34.15
2022-08-29T12:40:01.744Z,34.16
2022-08-29T12:43:03.397Z,33.09
2022-08-29T12:45:50.483Z,32.50
2022-08-29T12:48:42.429Z,32.90
2022-08-29T12:51:34.830Z,33.40
2022-08-29T12:54:32.628Z,33.17
2022-08-29T12:57:20.249Z,33.14
2022-08-29T13:00:12.644Z,33.49
2022-08-29T13:03:00.797Z,33.40
2022-08-29T13:05:46.844Z,32.91
2022-08-29T13:08:33.369Z,33.03
2022-08-29T13:11:21.795Z,33.29
2022-08-29T13:14:08.933Z,32.68
2022-08-29T13:16:53.005Z,33.41
2022-08-29T13:19:37.016Z,32.93
2022-08-29T13:22:22.336Z,32.81
2022-08-29T13:25:07.175Z,32.70
2022-08-29T13:28:01.574Z,32.72
2022-08-29T13:30:48.898Z,32.62
2022-08-29T13:33:35.022Z,33.25
2022-08-29T13:36:38.288Z,32.87
2022-08-29T13:39:27.431Z,32.76
2022-08-29T13:42:16.729Z,32.66
2022-08-29T13:45:15.303Z,33.38
2022-08-29T13:48:20.458Z,33.75
2022-08-29T13:51:06.706Z,33.50
2022-08-29T13:53:53.209Z,33.68
2022-08-29T13:56:38.669Z,34.00
2022-08-29T13:59:25.989Z,33.33
2022-08-29T14:02:11.319Z,32.53
2022-08-29T14:04:55.556Z,32.53
2022-08-29T14:07:39.537Z,32.86
2022-08-29T14:10:23.503Z,32.74
2022-08-29T14:13:08.869Z,33.39
2022-08-29T14:15:52.915Z,32.44
2022-08-29T14:18:36.897Z,32.63
2022-08-29T14:21:20.920Z,32.40
2022-08-29T14:24:05.353Z,32.63
2022-08-29T14:26:49.453Z,32.74
2022-08-29T14:29:45.158Z,31.99
2022-08-29T14:32:29.252Z,32.09
2022-08-29T14:35:26.182Z,32.35
2022-08-29T14:38:11.869Z,32.56
2022-08-29T14:40:56.086Z,32.56
2022-08-29T14:43:40.835Z,32.89
2022-08-29T14:46:26.922Z,33.16
2022-08-29T14:49:11.275Z,33.39
2022-08-29T14:51:55.253Z,33.29
2022-08-29T14:54:39.229Z,33.16
2022-08-29T14:57:23.300Z,33.27
2022-08-29T15:00:09.847Z,33.24
2022-08-29T15:02:55.752Z,32.39
2022-08-29T15:05:39.940Z,33.25
2022-08-29T15:08:24.040Z,33.38
2022-08-29T15:11:08.338Z,33.57
2022-08-29T15:13:52.465Z,32.96
2022-08-29T15:16:36.573Z,32.34
2022-08-29T15:20:18.125Z,32.63
2022-08-29T15:22:27.612Z,33.10
2022-08-29T15:25:11.600Z,32.25
2022-08-29T15:27:55.973Z,32.55
2022-08-29T15:30:40.490Z,32.31
2022-08-29T15:33:25.333Z,32.70
2022-08-29T15:36:11.262Z,32.08
2022-08-29T15:38:55.441Z,32.33
2022-08-29T15:41:39.582Z,31.71
2022-08-29T15:44:23.678Z,31.53
2022-08-29T15:47:10.537Z,31.50
2022-08-29T15:49:55.280Z,31.90
2022-08-29T15:52:40.750Z,32.41
2022-08-29T15:55:24.799Z,32.27
2022-08-29T15:58:08.768Z,32.42
2022-08-29T16:00:53.098Z,32.30
2022-08-29T16:03:37.360Z,31.29
2022-08-29T16:06:21.217Z,31.65
2022-08-29T16:09:15.697Z,31.40
2022-08-29T16:11:59.923Z,31.19
2022-08-29T16:14:58.934Z,30.83
2022-08-29T16:17:43.345Z,30.65
2022-08-29T16:20:27.229Z,30.55
2022-08-29T16:23:11.514Z,30.86
2022-08-29T16:25:57.069Z,30.58
2022-08-29T16:28:41.391Z,30.64
2022-08-29T16:31:25.691Z,30.52
2022-08-29T16:34:09.758Z,30.15
2022-08-29T16:36:56.862Z,30.32
2022-08-29T16:39:40.802Z,30.36
2022-08-29T16:42:30.312Z,30.39
2022-08-29T16:45:16.247Z,29.92
2022-08-29T16:48:00.882Z,29.38
2022-08-29T16:50:44.999Z,29.76
2022-08-29T16:53:28.859Z,29.47
2022-08-29T16:56:15.764Z,29.75
2022-08-29T16:59:01.842Z,29.64
2022-08-29T17:01:48.654Z,29.59
2022-08-29T17:04:32.850Z,29.57
2022-08-29T17:07:17.292Z,29.28
2022-08-29T17:10:02.259Z,28.93
2022-08-29T17:12:46.147Z,28.97
2022-08-29T17:15:30.177Z,28.77
2022-08-29T17:18:14.062Z,28.60
2022-08-29T17:20:59.915Z,28.18
2022-08-29T17:23:44.889Z,27.81
2022-08-29T17:26:29.351Z,28.19
2022-08-29T17:29:14.008Z,27.82
2022-08-29T17:31:59.256Z,27.62
2022-08-29T17:34:44.162Z,27.89
2022-08-29T17:37:29.510Z,27.45
2022-08-29T17:40:20.482Z,27.13
2022-08-29T17:43:05.878Z,27.23
2022-08-29T17:45:49.742Z,27.20
2022-08-29T17:48:35.088Z,26.93
2022-08-29T17:51:19.007Z,26.65
2022-08-29T17:54:04.480Z,26.83
2022-08-29T17:56:51.035Z,26.46
2022-08-29T17:59:36.908Z,26.57
2022-08-29T18:02:20.868Z,26.61
2022-08-29T18:05:10.241Z,26.16
2022-08-29T18:07:54.195Z,26.14
2022-08-29T18:10:39.869Z,26.12
2022-08-29T18:13:24.421Z,26.22
2022-08-29T18:16:11.567Z,26.08
2022-08-29T18:18:56.254Z,26.31
2022-08-29T18:21:43.312Z,26.04
2022-08-29T18:24:27.317Z,25.86
2022-08-29T18:27:11.364Z,25.65
2022-08-29T18:29:57.781Z,25.61
2022-08-29T18:32:42.572Z,25.52
2022-08-29T18:35:26.642Z,25.80
2022-08-29T18:38:11.901Z,25.47
2022-08-29T18:40:56.086Z,25.21
2022-08-29T18:43:39.888Z,25.58
2022-08-29T18:46:23.825Z,25.54
2022-08-29T18:49:08.253Z,25.42
2022-08-29T18:51:55.573Z,25.57
2022-08-29T18:54:41.421Z,25.57
2022-08-29T18:57:25.301Z,25.61
2022-08-29T19:00:11.256Z,25.43
2022-08-29T19:02:56.452Z,25.55
2022-08-29T19:05:43.746Z,25.34
2022-08-29T19:08:27.664Z,25.27
2022-08-29T19:11:14.023Z,25.21
2022-08-29T19:13:58.054Z,25.03
2022-08-29T19:16:42.364Z,25.26
2022-08-29T19:19:26.318Z,25.26
2022-08-29T19:22:11.712Z,24.69
2022-08-29T19:24:55.719Z,25.12
2022-08-29T19:27:44.068Z,25.13
2022-08-29T19:30:28.536Z,24.77
2022-08-29T19:33:15.346Z,25.10
2022-08-29T19:35:59.410Z,25.00
2022-08-29T19:38:43.203Z,24.96
2022-08-29T19:41:27.562Z,24.95
2022-08-29T19:44:12.789Z,24.89
2022-08-29T19:46:58.339Z,24.74
2022-08-29T19:49:45.377Z,24.79
2022-08-29T19:52:29.561Z,24.77
2022-08-29T19:55:17.763Z,24.61
2022-08-29T19:58:01.798Z,24.50
2022-08-29T20:00:52.134Z,24.84
2022-08-29T20:03:39.551Z,24.88
2022-08-29T20:06:24.388Z,24.87
2022-08-29T20:09:08.788Z,24.76
2022-08-29T20:11:52.661Z,24.89
2022-08-29T20:14:37.213Z,24.88
2022-08-29T20:17:22.560Z,24.73
2022-08-29T20:20:11.813Z,24.67
2022-08-29T20:22:55.930Z,24.67
2022-08-29T20:25:39.840Z,24.23
2022-08-29T20:28:23.749Z,24.76
2022-08-29T20:31:08.002Z,24.71
2022-08-29T20:33:53.513Z,24.74
2022-08-29T20:36:54.843Z,24.46
2022-08-29T20:39:39.518Z,24.71
2022-08-29T20:42:25.432Z,24.85
2022-08-29T20:45:10.322Z,24.77
2022-08-29T20:47:54.294Z,24.73
2022-08-29T20:50:39.866Z,24.58
2022-08-29T20:53:32.013Z,24.35
2022-08-29T20:56:17.003Z,24.28
2022-08-29T20:59:00.874Z,24.54
2022-08-29T21:01:45.235Z,24.66
2022-08-29T21:04:46.848Z,24.68
2022-08-29T21:07:32.028Z,24.48
2022-08-29T21:10:15.781Z,24.27
2022-08-29T21:13:00.121Z,24.19
2022-08-29T21:15:44.545Z,24.47
2022-08-29T21:18:28.471Z,24.53
2022-08-29T21:21:13.536Z,24.30
2022-08-29T21:23:58.819Z,24.21
2022-08-29T21:26:42.669Z,24.22
2022-08-29T21:29:26.519Z,24.22
2022-08-29T21:32:10.417Z,24.21
2022-08-29T21:34:54.305Z,24.19
2022-08-29T21:37:39.292Z,24.44
2022-08-29T21:40:26.151Z,24.26
2022-08-29T21:43:09.979Z,24.22
2022-08-29T21:45:57.298Z,24.16
2022-08-29T21:48:41.131Z,24.10
2022-08-29T21:51:25.460Z,24.21
2022-08-29T21:54:13.389Z,24.39
2022-08-29T21:56:58.989Z,24.48
2022-08-29T21:59:42.899Z,24.39
2022-08-29T22:02:27.663Z,24.45
2022-08-29T22:05:11.845Z,24.57
2022-08-29T22:07:55.929Z,24.39
2022-08-29T22:10:42.680Z,24.34
2022-08-29T22:13:28.505Z,24.36
2022-08-29T22:16:30.230Z,24.04
2022-08-29T22:19:16.302Z,24.32
2022-08-29T22:22:00.863Z,24.30
2022-08-29T22:24:44.782Z,24.26
2022-08-29T22:27:28.747Z,24.21
2022-08-29T22:30:15.754Z,24.27
2022-08-29T22:33:00.146Z,23.98
2022-08-29T22:35:45.234Z,23.89
2022-08-29T22:38:30.099Z,24.06
2022-08-29T22:41:16.027Z,24.38
2022-08-29T22:44:42.462Z,24.32
2022-08-29T22:47:08.167Z,24.23
2022-08-29T22:49:52.018Z,24.20
2022-08-29T22:52:36.197Z,23.98
2022-08-29T22:58:04.911Z,24.05
2022-08-29T23:00:48.928Z,24.09
2022-08-29T23:03:34.207Z,24.17
2022-08-29T23:06:17.992Z,23.97
2022-08-29T23:09:03.439Z,23.79
2022-08-29T23:11:48.015Z,23.77
2022-08-29T23:14:31.927Z,23.61
2022-08-29T23:17:17.356Z,23.59
2022-08-29T23:20:02.725Z,23.58
2022-08-29T23:22:48.799Z,23.86
2022-08-29T23:25:32.821Z,23.63
2022-08-29T23:28:16.845Z,23.46
2022-08-29T23:31:01.662Z,23.31
2022-08-29T23:33:45.750Z,23.27
2022-08-29T23:36:31.136Z,23.24
2022-08-29T23:39:15.072Z,23.41
2022-08-29T23:41:59.674Z,23.55
2022-08-29T23:44:43.637Z,23.51
2022-08-29T23:47:27.656Z,23.58
2022-08-29T23:50:14.322Z,23.43
2022-08-29T23:52:59.662Z,23.34
2022-08-29T23:55:44.026Z,23.46
2022-08-29T23:58:28.140Z,23.35
